Ilopango International Airport
MSSS : now visible

Airfield :











YOU CAN JOIN US ON...

 
LOGIN :

Register | Disclaimer

   EN    FR    IT 

 









Legend :    VFR   Marginal VFR   IFR   Intensive IFR   Very Intensive IFR
Visi :
Ceiling :
>= 8 km
>= 3000ft
5 to 8 km
1000 to 3000 ft
1500m to 5 km
500 to 1000 ft
800 to 1500m
200 to 500 ft
< 800m
< 200 ft
Symbols :   Thunderstorms  Fog  Heavy snow  Heavy precipitations  Wind > 20 kt






- Airport Elevation : 2021 ft


MSSS - Ilopango International

CURRENT METAR :
  • 110150Z 19003KT 9999 BKN060 24/21 Q1016 A3001

EXPIRED METARs :
  • 110050Z 16005KT CAVOK 24/21 Q1015 A2998
  • 102350Z 17008KT CAVOK 26/21 Q1014 A2995

TAF TAF MSSS
Valid from the 11 at 00:00 until the 12 at 00:00 UTC


102125Z 1100/1124 35005KT CAVOK TX30/1118Z TN20/1112Z
FM111800 17008KT 9999 FEW043



MET'MAP, your aeronautical weather chart ! - Copyright ORBIFLY December 2007 - Disclaimer

ORBIFLY MET'MAP TEAM :

Programming & Development : Alexandra Zaïnal
Concept & original design : Baudouin d'Aumeries
Assistance for programming : Marc-Olivier Méhu
Technical & hardware support : Manuel Goepfert

Contact : metmap@orbifly.com




SOURCES & CREDITS :

   NOAA       Earth
Advisory